sensor_id;sensor_type;location;lat;lon;timestamp;P1;durP1;ratioP1;P2;durP2;ratioP2
16179;SDS011;8196;49.428;10.906;2024-02-26T00:00:14;5.25;;;4.22;;
16179;SDS011;8196;49.428;10.906;2024-02-26T00:02:42;5.27;;;4.40;;
16179;SDS011;8196;49.428;10.906;2024-02-26T00:05:09;5.20;;;4.28;;
16179;SDS011;8196;49.428;10.906;2024-02-26T00:07:36;6.10;;;5.00;;
16179;SDS011;8196;49.428;10.906;2024-02-26T00:10:05;5.97;;;4.60;;
16179;SDS011;8196;49.428;10.906;2024-02-26T00:12:32;5.77;;;5.00;;
16179;SDS011;8196;49.428;10.906;2024-02-26T00:14:59;5.13;;;4.20;;
16179;SDS011;8196;49.428;10.906;2024-02-26T00:17:27;6.30;;;4.60;;
16179;SDS011;8196;49.428;10.906;2024-02-26T00:19:54;5.57;;;4.75;;
16179;SDS011;8196;49.428;10.906;2024-02-26T00:22:21;6.25;;;4.63;;
16179;SDS011;8196;49.428;10.906;2024-02-26T00:24:48;5.40;;;4.32;;
16179;SDS011;8196;49.428;10.906;2024-02-26T00:27:16;4.93;;;4.18;;
16179;SDS011;8196;49.428;10.906;2024-02-26T00:29:43;6.20;;;4.75;;
16179;SDS011;8196;49.428;10.906;2024-02-26T00:32:10;6.45;;;5.07;;
16179;SDS011;8196;49.428;10.906;2024-02-26T00:34:40;6.20;;;4.85;;
16179;SDS011;8196;49.428;10.906;2024-02-26T00:37:07;4.40;;;4.00;;
16179;SDS011;8196;49.428;10.906;2024-02-26T00:39:37;5.22;;;4.05;;
16179;SDS011;8196;49.428;10.906;2024-02-26T00:42:04;4.72;;;4.20;;
16179;SDS011;8196;49.428;10.906;2024-02-26T00:44:31;4.82;;;4.03;;
16179;SDS011;8196;49.428;10.906;2024-02-26T00:47:01;4.85;;;4.30;;
16179;SDS011;8196;49.428;10.906;2024-02-26T00:49:30;5.10;;;4.60;;
16179;SDS011;8196;49.428;10.906;2024-02-26T00:51:57;5.68;;;4.50;;
16179;SDS011;8196;49.428;10.906;2024-02-26T00:54:25;5.28;;;4.07;;
16179;SDS011;8196;49.428;10.906;2024-02-26T00:56:52;5.15;;;4.40;;
16179;SDS011;8196;49.428;10.906;2024-02-26T00:59:19;5.10;;;4.13;;
16179;SDS011;8196;49.428;10.906;2024-02-26T01:01:46;4.60;;;3.93;;
16179;SDS011;8196;49.428;10.906;2024-02-26T01:04:14;4.57;;;4.07;;
16179;SDS011;8196;49.428;10.906;2024-02-26T01:06:41;5.22;;;3.97;;
16179;SDS011;8196;49.428;10.906;2024-02-26T01:09:08;4.85;;;4.00;;
16179;SDS011;8196;49.428;10.906;2024-02-26T01:11:35;4.85;;;4.28;;
16179;SDS011;8196;49.428;10.906;2024-02-26T01:14:03;3.80;;;3.33;;
16179;SDS011;8196;49.428;10.906;2024-02-26T01:16:30;5.32;;;3.63;;
16179;SDS011;8196;49.428;10.906;2024-02-26T01:18:58;5.45;;;3.60;;
16179;SDS011;8196;49.428;10.906;2024-02-26T01:21:25;5.32;;;4.40;;
16179;SDS011;8196;49.428;10.906;2024-02-26T01:23:55;6.00;;;4.05;;
16179;SDS011;8196;49.428;10.906;2024-02-26T01:26:22;6.25;;;4.43;;
16179;SDS011;8196;49.428;10.906;2024-02-26T01:28:50;6.22;;;5.25;;
16179;SDS011;8196;49.428;10.906;2024-02-26T01:31:18;6.07;;;4.63;;
16179;SDS011;8196;49.428;10.906;2024-02-26T01:33:46;6.43;;;4.88;;
16179;SDS011;8196;49.428;10.906;2024-02-26T01:36:13;7.75;;;4.82;;
16179;SDS011;8196;49.428;10.906;2024-02-26T01:38:40;4.88;;;3.80;;
16179;SDS011;8196;49.428;10.906;2024-02-26T01:41:08;6.38;;;4.70;;
16179;SDS011;8196;49.428;10.906;2024-02-26T01:43:35;6.57;;;4.23;;
16179;SDS011;8196;49.428;10.906;2024-02-26T01:46:03;6.05;;;3.80;;
16179;SDS011;8196;49.428;10.906;2024-02-26T01:48:30;4.55;;;3.70;;
16179;SDS011;8196;49.428;10.906;2024-02-26T01:50:57;5.53;;;3.93;;
16179;SDS011;8196;49.428;10.906;2024-02-26T01:53:25;5.63;;;4.25;;
16179;SDS011;8196;49.428;10.906;2024-02-26T01:55:52;4.65;;;3.70;;
16179;SDS011;8196;49.428;10.906;2024-02-26T01:58:20;6.50;;;4.88;;
16179;SDS011;8196;49.428;10.906;2024-02-26T02:00:47;6.07;;;4.45;;
16179;SDS011;8196;49.428;10.906;2024-02-26T02:03:16;4.72;;;4.20;;
16179;SDS011;8196;49.428;10.906;2024-02-26T02:05:44;5.63;;;4.10;;
16179;SDS011;8196;49.428;10.906;2024-02-26T02:08:13;6.93;;;4.93;;
16179;SDS011;8196;49.428;10.906;2024-02-26T02:10:42;6.53;;;4.50;;
16179;SDS011;8196;49.428;10.906;2024-02-26T02:13:12;5.70;;;3.95;;
16179;SDS011;8196;49.428;10.906;2024-02-26T02:15:41;6.38;;;5.07;;
16179;SDS011;8196;49.428;10.906;2024-02-26T02:18:09;5.33;;;4.20;;
16179;SDS011;8196;49.428;10.906;2024-02-26T02:20:36;5.13;;;4.22;;
16179;SDS011;8196;49.428;10.906;2024-02-26T02:23:04;5.22;;;3.60;;
16179;SDS011;8196;49.428;10.906;2024-02-26T02:25:31;6.60;;;4.88;;
16179;SDS011;8196;49.428;10.906;2024-02-26T02:27:58;6.65;;;4.50;;
16179;SDS011;8196;49.428;10.906;2024-02-26T02:30:26;6.90;;;4.68;;
16179;SDS011;8196;49.428;10.906;2024-02-26T02:32:55;8.43;;;5.90;;
16179;SDS011;8196;49.428;10.906;2024-02-26T02:35:23;8.40;;;6.03;;
16179;SDS011;8196;49.428;10.906;2024-02-26T02:37:51;10.77;;;6.78;;
16179;SDS011;8196;49.428;10.906;2024-02-26T02:40:19;9.05;;;6.07;;
16179;SDS011;8196;49.428;10.906;2024-02-26T02:42:46;10.05;;;6.70;;
16179;SDS011;8196;49.428;10.906;2024-02-26T02:45:13;11.85;;;7.03;;
16179;SDS011;8196;49.428;10.906;2024-02-26T02:47:42;10.15;;;6.72;;
16179;SDS011;8196;49.428;10.906;2024-02-26T02:50:10;10.10;;;7.00;;
16179;SDS011;8196;49.428;10.906;2024-02-26T02:52:37;7.78;;;5.13;;
16179;SDS011;8196;49.428;10.906;2024-02-26T02:55:04;7.60;;;4.90;;
16179;SDS011;8196;49.428;10.906;2024-02-26T02:57:34;6.70;;;4.65;;
16179;SDS011;8196;49.428;10.906;2024-02-26T03:00:07;5.57;;;4.25;;
16179;SDS011;8196;49.428;10.906;2024-02-26T03:05:03;4.68;;;3.63;;
16179;SDS011;8196;49.428;10.906;2024-02-26T03:07:32;6.03;;;4.10;;
16179;SDS011;8196;49.428;10.906;2024-02-26T03:09:59;7.00;;;5.15;;
16179;SDS011;8196;49.428;10.906;2024-02-26T03:12:26;9.65;;;6.07;;
16179;SDS011;8196;49.428;10.906;2024-02-26T03:14:54;12.25;;;6.75;;
16179;SDS011;8196;49.428;10.906;2024-02-26T03:17:21;10.23;;;6.80;;
16179;SDS011;8196;49.428;10.906;2024-02-26T03:19:51;9.05;;;6.10;;
16179;SDS011;8196;49.428;10.906;2024-02-26T03:22:20;10.35;;;6.68;;
16179;SDS011;8196;49.428;10.906;2024-02-26T03:24:47;10.97;;;6.37;;
16179;SDS011;8196;49.428;10.906;2024-02-26T03:27:15;6.22;;;4.78;;
16179;SDS011;8196;49.428;10.906;2024-02-26T03:29:42;7.10;;;4.20;;
16179;SDS011;8196;49.428;10.906;2024-02-26T03:32:10;6.78;;;4.30;;
16179;SDS011;8196;49.428;10.906;2024-02-26T03:34:37;6.40;;;4.18;;
16179;SDS011;8196;49.428;10.906;2024-02-26T03:37:06;5.85;;;4.30;;
16179;SDS011;8196;49.428;10.906;2024-02-26T03:39:35;5.70;;;4.10;;
16179;SDS011;8196;49.428;10.906;2024-02-26T03:42:05;5.60;;;4.30;;
16179;SDS011;8196;49.428;10.906;2024-02-26T03:44:34;6.97;;;5.18;;
16179;SDS011;8196;49.428;10.906;2024-02-26T03:47:01;9.27;;;6.80;;
16179;SDS011;8196;49.428;10.906;2024-02-26T03:49:29;8.65;;;5.82;;
16179;SDS011;8196;49.428;10.906;2024-02-26T03:51:56;6.27;;;4.60;;
16179;SDS011;8196;49.428;10.906;2024-02-26T03:54:23;9.10;;;5.38;;
16179;SDS011;8196;49.428;10.906;2024-02-26T03:56:51;7.60;;;4.55;;
16179;SDS011;8196;49.428;10.906;2024-02-26T03:59:18;8.10;;;4.80;;
16179;SDS011;8196;49.428;10.906;2024-02-26T04:01:48;9.13;;;5.85;;
16179;SDS011;8196;49.428;10.906;2024-02-26T04:04:16;8.60;;;5.18;;
16179;SDS011;8196;49.428;10.906;2024-02-26T04:06:44;6.80;;;4.88;;
16179;SDS011;8196;49.428;10.906;2024-02-26T04:09:14;6.90;;;4.75;;
16179;SDS011;8196;49.428;10.906;2024-02-26T04:11:41;8.73;;;6.00;;
16179;SDS011;8196;49.428;10.906;2024-02-26T04:14:10;7.32;;;5.13;;
16179;SDS011;8196;49.428;10.906;2024-02-26T04:16:38;6.55;;;4.80;;
16179;SDS011;8196;49.428;10.906;2024-02-26T04:19:06;5.07;;;4.18;;
16179;SDS011;8196;49.428;10.906;2024-02-26T04:21:35;7.90;;;5.10;;
16179;SDS011;8196;49.428;10.906;2024-02-26T04:24:03;6.38;;;4.53;;
16179;SDS011;8196;49.428;10.906;2024-02-26T04:26:30;8.57;;;5.65;;
16179;SDS011;8196;49.428;10.906;2024-02-26T04:28:57;8.65;;;6.07;;
16179;SDS011;8196;49.428;10.906;2024-02-26T04:31:25;7.65;;;5.53;;
16179;SDS011;8196;49.428;10.906;2024-02-26T04:33:54;9.27;;;6.13;;
16179;SDS011;8196;49.428;10.906;2024-02-26T04:36:21;8.18;;;5.75;;
16179;SDS011;8196;49.428;10.906;2024-02-26T04:38:48;9.18;;;5.32;;
16179;SDS011;8196;49.428;10.906;2024-02-26T04:41:18;6.45;;;4.85;;
16179;SDS011;8196;49.428;10.906;2024-02-26T04:43:45;9.65;;;5.95;;
16179;SDS011;8196;49.428;10.906;2024-02-26T04:46:15;10.23;;;6.15;;
16179;SDS011;8196;49.428;10.906;2024-02-26T04:48:42;7.53;;;4.88;;
16179;SDS011;8196;49.428;10.906;2024-02-26T04:51:11;7.20;;;5.18;;
16179;SDS011;8196;49.428;10.906;2024-02-26T04:53:39;6.55;;;4.55;;
16179;SDS011;8196;49.428;10.906;2024-02-26T04:56:06;6.55;;;5.00;;
16179;SDS011;8196;49.428;10.906;2024-02-26T04:58:33;6.75;;;5.00;;
16179;SDS011;8196;49.428;10.906;2024-02-26T05:01:01;7.38;;;5.30;;
16179;SDS011;8196;49.428;10.906;2024-02-26T05:03:32;7.63;;;5.07;;
16179;SDS011;8196;49.428;10.906;2024-02-26T05:06:02;6.25;;;4.60;;
16179;SDS011;8196;49.428;10.906;2024-02-26T05:08:29;7.05;;;4.38;;
16179;SDS011;8196;49.428;10.906;2024-02-26T05:10:57;6.67;;;4.40;;
16179;SDS011;8196;49.428;10.906;2024-02-26T05:13:24;5.90;;;4.47;;
16179;SDS011;8196;49.428;10.906;2024-02-26T05:15:53;7.18;;;4.95;;
16179;SDS011;8196;49.428;10.906;2024-02-26T05:18:23;6.07;;;4.50;;
16179;SDS011;8196;49.428;10.906;2024-02-26T05:20:51;7.65;;;4.60;;
16179;SDS011;8196;49.428;10.906;2024-02-26T05:23:18;7.13;;;4.70;;
16179;SDS011;8196;49.428;10.906;2024-02-26T05:25:49;7.43;;;4.30;;
16179;SDS011;8196;49.428;10.906;2024-02-26T05:28:16;6.10;;;4.25;;
16179;SDS011;8196;49.428;10.906;2024-02-26T05:30:46;5.93;;;4.47;;
16179;SDS011;8196;49.428;10.906;2024-02-26T05:33:14;9.07;;;6.20;;
16179;SDS011;8196;49.428;10.906;2024-02-26T05:35:46;7.85;;;5.10;;
16179;SDS011;8196;49.428;10.906;2024-02-26T05:38:13;9.57;;;5.90;;
16179;SDS011;8196;49.428;10.906;2024-02-26T05:40:40;7.30;;;5.25;;
16179;SDS011;8196;49.428;10.906;2024-02-26T05:43:07;7.47;;;4.90;;
16179;SDS011;8196;49.428;10.906;2024-02-26T05:45:35;9.75;;;6.13;;
16179;SDS011;8196;49.428;10.906;2024-02-26T05:48:04;6.82;;;4.80;;
16179;SDS011;8196;49.428;10.906;2024-02-26T05:50:32;9.55;;;6.40;;
16179;SDS011;8196;49.428;10.906;2024-02-26T05:53:01;9.18;;;6.57;;
16179;SDS011;8196;49.428;10.906;2024-02-26T05:55:28;12.13;;;8.02;;
16179;SDS011;8196;49.428;10.906;2024-02-26T05:57:56;13.40;;;8.07;;
16179;SDS011;8196;49.428;10.906;2024-02-26T06:00:25;11.48;;;8.10;;
16179;SDS011;8196;49.428;10.906;2024-02-26T06:02:52;12.73;;;8.27;;
16179;SDS011;8196;49.428;10.906;2024-02-26T06:05:19;11.67;;;7.73;;
16179;SDS011;8196;49.428;10.906;2024-02-26T06:07:47;8.93;;;6.57;;
16179;SDS011;8196;49.428;10.906;2024-02-26T06:10:14;9.85;;;6.57;;
16179;SDS011;8196;49.428;10.906;2024-02-26T06:12:41;13.60;;;8.50;;
16179;SDS011;8196;49.428;10.906;2024-02-26T06:15:12;8.95;;;6.22;;
16179;SDS011;8196;49.428;10.906;2024-02-26T06:17:39;8.25;;;5.80;;
16179;SDS011;8196;49.428;10.906;2024-02-26T06:20:09;8.30;;;5.90;;
16179;SDS011;8196;49.428;10.906;2024-02-26T06:22:40;9.52;;;6.40;;
16179;SDS011;8196;49.428;10.906;2024-02-26T06:25:07;8.32;;;5.47;;
16179;SDS011;8196;49.428;10.906;2024-02-26T06:27:35;9.77;;;6.68;;
16179;SDS011;8196;49.428;10.906;2024-02-26T06:30:02;9.48;;;6.32;;
16179;SDS011;8196;49.428;10.906;2024-02-26T06:32:30;7.90;;;5.53;;
16179;SDS011;8196;49.428;10.906;2024-02-26T06:34:57;7.72;;;5.30;;
16179;SDS011;8196;49.428;10.906;2024-02-26T06:37:24;9.25;;;5.88;;
16179;SDS011;8196;49.428;10.906;2024-02-26T06:39:52;11.82;;;8.20;;
16179;SDS011;8196;49.428;10.906;2024-02-26T06:42:19;12.23;;;8.23;;
16179;SDS011;8196;49.428;10.906;2024-02-26T06:44:46;13.25;;;9.48;;
16179;SDS011;8196;49.428;10.906;2024-02-26T06:47:13;17.27;;;11.48;;
16179;SDS011;8196;49.428;10.906;2024-02-26T06:49:43;16.77;;;9.97;;
16179;SDS011;8196;49.428;10.906;2024-02-26T06:52:10;14.70;;;9.30;;
16179;SDS011;8196;49.428;10.906;2024-02-26T06:54:37;10.63;;;7.38;;
16179;SDS011;8196;49.428;10.906;2024-02-26T06:57:05;8.05;;;6.13;;
16179;SDS011;8196;49.428;10.906;2024-02-26T06:59:32;12.02;;;8.45;;
16179;SDS011;8196;49.428;10.906;2024-02-26T07:01:59;14.57;;;9.43;;
16179;SDS011;8196;49.428;10.906;2024-02-26T07:04:26;14.60;;;9.82;;
16179;SDS011;8196;49.428;10.906;2024-02-26T07:06:54;14.55;;;8.32;;
16179;SDS011;8196;49.428;10.906;2024-02-26T07:09:21;14.57;;;9.10;;
16179;SDS011;8196;49.428;10.906;2024-02-26T07:11:48;9.73;;;7.50;;
16179;SDS011;8196;49.428;10.906;2024-02-26T07:14:16;11.10;;;7.10;;
16179;SDS011;8196;49.428;10.906;2024-02-26T07:16:43;9.20;;;6.18;;
16179;SDS011;8196;49.428;10.906;2024-02-26T07:19:10;14.93;;;9.25;;
16179;SDS011;8196;49.428;10.906;2024-02-26T07:21:38;14.65;;;10.35;;
16179;SDS011;8196;49.428;10.906;2024-02-26T07:24:06;15.75;;;10.13;;
16179;SDS011;8196;49.428;10.906;2024-02-26T07:26:33;14.57;;;10.02;;
16179;SDS011;8196;49.428;10.906;2024-02-26T07:29:02;14.05;;;9.70;;
16179;SDS011;8196;49.428;10.906;2024-02-26T07:31:32;11.93;;;8.63;;
16179;SDS011;8196;49.428;10.906;2024-02-26T07:34:00;12.05;;;8.38;;
16179;SDS011;8196;49.428;10.906;2024-02-26T07:36:27;11.45;;;8.10;;
16179;SDS011;8196;49.428;10.906;2024-02-26T07:38:55;14.55;;;9.77;;
16179;SDS011;8196;49.428;10.906;2024-02-26T07:41:22;10.88;;;8.02;;
16179;SDS011;8196;49.428;10.906;2024-02-26T07:43:49;9.55;;;7.82;;
16179;SDS011;8196;49.428;10.906;2024-02-26T07:46:16;12.85;;;9.23;;
16179;SDS011;8196;49.428;10.906;2024-02-26T07:48:44;8.00;;;6.65;;
16179;SDS011;8196;49.428;10.906;2024-02-26T07:51:13;9.33;;;6.83;;
16179;SDS011;8196;49.428;10.906;2024-02-26T07:53:40;8.87;;;7.00;;
16179;SDS011;8196;49.428;10.906;2024-02-26T07:56:08;6.68;;;5.45;;
16179;SDS011;8196;49.428;10.906;2024-02-26T07:58:36;9.30;;;6.40;;
16179;SDS011;8196;49.428;10.906;2024-02-26T08:01:03;8.20;;;6.57;;
16179;SDS011;8196;49.428;10.906;2024-02-26T08:03:30;7.20;;;5.38;;
16179;SDS011;8196;49.428;10.906;2024-02-26T08:05:58;7.40;;;5.15;;
16179;SDS011;8196;49.428;10.906;2024-02-26T08:08:25;6.65;;;5.50;;
16179;SDS011;8196;49.428;10.906;2024-02-26T08:10:52;5.63;;;4.40;;
16179;SDS011;8196;49.428;10.906;2024-02-26T08:13:19;7.60;;;6.10;;
16179;SDS011;8196;49.428;10.906;2024-02-26T08:15:47;9.77;;;7.17;;
16179;SDS011;8196;49.428;10.906;2024-02-26T08:18:14;9.55;;;6.63;;
16179;SDS011;8196;49.428;10.906;2024-02-26T08:20:42;8.82;;;6.55;;
16179;SDS011;8196;49.428;10.906;2024-02-26T08:23:12;8.70;;;6.70;;
16179;SDS011;8196;49.428;10.906;2024-02-26T08:25:39;7.93;;;5.93;;
16179;SDS011;8196;49.428;10.906;2024-02-26T08:28:06;8.57;;;6.65;;
16179;SDS011;8196;49.428;10.906;2024-02-26T08:30:33;9.48;;;6.53;;
16179;SDS011;8196;49.428;10.906;2024-02-26T08:33:01;8.07;;;5.82;;
16179;SDS011;8196;49.428;10.906;2024-02-26T08:35:28;5.78;;;4.65;;
16179;SDS011;8196;49.428;10.906;2024-02-26T08:37:58;7.28;;;5.10;;
16179;SDS011;8196;49.428;10.906;2024-02-26T08:40:25;8.53;;;5.90;;
16179;SDS011;8196;49.428;10.906;2024-02-26T08:42:53;6.22;;;4.63;;
16179;SDS011;8196;49.428;10.906;2024-02-26T08:45:20;5.63;;;4.20;;
16179;SDS011;8196;49.428;10.906;2024-02-26T08:47:47;7.10;;;5.32;;
16179;SDS011;8196;49.428;10.906;2024-02-26T08:50:15;4.97;;;4.47;;
16179;SDS011;8196;49.428;10.906;2024-02-26T08:52:42;5.45;;;4.35;;
16179;SDS011;8196;49.428;10.906;2024-02-26T08:55:10;5.87;;;5.00;;
16179;SDS011;8196;49.428;10.906;2024-02-26T08:57:37;6.35;;;4.65;;
16179;SDS011;8196;49.428;10.906;2024-02-26T09:00:05;6.38;;;4.57;;
16179;SDS011;8196;49.428;10.906;2024-02-26T09:02:32;5.70;;;4.20;;
16179;SDS011;8196;49.428;10.906;2024-02-26T09:05:02;5.00;;;3.97;;
16179;SDS011;8196;49.428;10.906;2024-02-26T09:07:30;4.93;;;3.50;;
16179;SDS011;8196;49.428;10.906;2024-02-26T09:09:57;5.60;;;4.20;;
16179;SDS011;8196;49.428;10.906;2024-02-26T09:12:24;3.80;;;3.20;;
16179;SDS011;8196;49.428;10.906;2024-02-26T09:14:52;4.43;;;3.33;;
16179;SDS011;8196;49.428;10.906;2024-02-26T09:17:19;5.18;;;3.88;;
16179;SDS011;8196;49.428;10.906;2024-02-26T09:19:46;4.35;;;3.70;;
16179;SDS011;8196;49.428;10.906;2024-02-26T09:22:14;4.82;;;3.83;;
16179;SDS011;8196;49.428;10.906;2024-02-26T09:24:44;5.30;;;4.20;;
16179;SDS011;8196;49.428;10.906;2024-02-26T09:27:11;5.03;;;3.80;;
16179;SDS011;8196;49.428;10.906;2024-02-26T09:29:39;5.05;;;3.65;;
16179;SDS011;8196;49.428;10.906;2024-02-26T09:32:06;4.47;;;3.30;;
16179;SDS011;8196;49.428;10.906;2024-02-26T09:34:33;4.70;;;3.55;;
16179;SDS011;8196;49.428;10.906;2024-02-26T09:37:03;5.20;;;3.90;;
16179;SDS011;8196;49.428;10.906;2024-02-26T09:39:43;4.18;;;3.40;;
16179;SDS011;8196;49.428;10.906;2024-02-26T09:42:14;3.88;;;3.05;;
16179;SDS011;8196;49.428;10.906;2024-02-26T09:44:44;4.10;;;3.33;;
16179;SDS011;8196;49.428;10.906;2024-02-26T09:47:12;5.23;;;3.00;;
16179;SDS011;8196;49.428;10.906;2024-02-26T09:49:41;4.40;;;3.15;;
16179;SDS011;8196;49.428;10.906;2024-02-26T09:52:09;3.20;;;2.80;;
16179;SDS011;8196;49.428;10.906;2024-02-26T09:54:36;4.20;;;2.85;;
16179;SDS011;8196;49.428;10.906;2024-02-26T09:57:07;5.05;;;3.17;;
16179;SDS011;8196;49.428;10.906;2024-02-26T09:59:42;4.05;;;2.85;;
16179;SDS011;8196;49.428;10.906;2024-02-26T10:02:13;4.28;;;3.00;;
16179;SDS011;8196;49.428;10.906;2024-02-26T10:04:41;4.32;;;2.67;;
16179;SDS011;8196;49.428;10.906;2024-02-26T10:07:13;4.30;;;2.80;;
16179;SDS011;8196;49.428;10.906;2024-02-26T10:09:41;4.47;;;2.90;;
16179;SDS011;8196;49.428;10.906;2024-02-26T10:12:10;3.25;;;2.42;;
16179;SDS011;8196;49.428;10.906;2024-02-26T10:14:38;3.05;;;2.35;;
16179;SDS011;8196;49.428;10.906;2024-02-26T10:17:07;2.87;;;2.50;;
16179;SDS011;8196;49.428;10.906;2024-02-26T10:19:35;2.63;;;2.10;;
16179;SDS011;8196;49.428;10.906;2024-02-26T10:22:04;4.30;;;3.20;;
16179;SDS011;8196;49.428;10.906;2024-02-26T10:24:32;5.80;;;3.10;;
16179;SDS011;8196;49.428;10.906;2024-02-26T10:27:01;3.33;;;2.60;;
16179;SDS011;8196;49.428;10.906;2024-02-26T10:29:29;3.85;;;3.22;;
16179;SDS011;8196;49.428;10.906;2024-02-26T10:31:56;4.10;;;2.50;;
16179;SDS011;8196;49.428;10.906;2024-02-26T10:34:23;3.10;;;2.50;;
16179;SDS011;8196;49.428;10.906;2024-02-26T10:36:51;4.57;;;2.80;;
16179;SDS011;8196;49.428;10.906;2024-02-26T10:39:20;4.18;;;2.60;;
16179;SDS011;8196;49.428;10.906;2024-02-26T10:41:48;3.65;;;2.60;;
16179;SDS011;8196;49.428;10.906;2024-02-26T10:44:16;4.20;;;2.33;;
16179;SDS011;8196;49.428;10.906;2024-02-26T10:46:46;3.33;;;2.42;;
16179;SDS011;8196;49.428;10.906;2024-02-26T10:49:16;3.08;;;2.40;;
16179;SDS011;8196;49.428;10.906;2024-02-26T10:51:53;3.30;;;2.70;;
16179;SDS011;8196;49.428;10.906;2024-02-26T10:54:23;3.20;;;2.42;;
16179;SDS011;8196;49.428;10.906;2024-02-26T10:56:51;3.70;;;2.40;;
16179;SDS011;8196;49.428;10.906;2024-02-26T10:59:18;3.65;;;2.65;;
16179;SDS011;8196;49.428;10.906;2024-02-26T11:01:47;3.00;;;2.20;;
16179;SDS011;8196;49.428;10.906;2024-02-26T11:04:16;4.07;;;2.78;;
16179;SDS011;8196;49.428;10.906;2024-02-26T11:06:44;5.63;;;3.72;;
16179;SDS011;8196;49.428;10.906;2024-02-26T11:09:12;3.95;;;2.72;;
16179;SDS011;8196;49.428;10.906;2024-02-26T11:11:41;4.10;;;2.90;;
16179;SDS011;8196;49.428;10.906;2024-02-26T11:14:08;3.70;;;2.75;;
16179;SDS011;8196;49.428;10.906;2024-02-26T11:16:39;4.63;;;2.47;;
16179;SDS011;8196;49.428;10.906;2024-02-26T11:19:08;4.30;;;2.75;;
16179;SDS011;8196;49.428;10.906;2024-02-26T11:21:37;3.93;;;2.37;;
16179;SDS011;8196;49.428;10.906;2024-02-26T11:24:07;3.08;;;2.30;;
16179;SDS011;8196;49.428;10.906;2024-02-26T11:26:36;4.25;;;2.45;;
16179;SDS011;8196;49.428;10.906;2024-02-26T11:29:12;2.43;;;2.20;;
16179;SDS011;8196;49.428;10.906;2024-02-26T11:31:42;2.33;;;1.95;;
16179;SDS011;8196;49.428;10.906;2024-02-26T11:34:09;4.45;;;2.47;;
16179;SDS011;8196;49.428;10.906;2024-02-26T11:36:38;3.95;;;2.30;;
16179;SDS011;8196;49.428;10.906;2024-02-26T11:39:06;2.95;;;2.10;;
16179;SDS011;8196;49.428;10.906;2024-02-26T11:41:33;3.03;;;2.60;;
16179;SDS011;8196;49.428;10.906;2024-02-26T11:44:02;3.67;;;2.63;;
16179;SDS011;8196;49.428;10.906;2024-02-26T11:46:32;4.50;;;2.67;;
16179;SDS011;8196;49.428;10.906;2024-02-26T11:49:01;2.75;;;2.08;;
16179;SDS011;8196;49.428;10.906;2024-02-26T11:51:33;3.35;;;2.35;;
16179;SDS011;8196;49.428;10.906;2024-02-26T11:54:01;3.25;;;2.63;;
16179;SDS011;8196;49.428;10.906;2024-02-26T11:56:28;3.87;;;2.17;;
16179;SDS011;8196;49.428;10.906;2024-02-26T11:59:00;3.93;;;2.70;;
16179;SDS011;8196;49.428;10.906;2024-02-26T12:04:21;3.20;;;2.70;;
16179;SDS011;8196;49.428;10.906;2024-02-26T12:06:54;3.92;;;2.80;;
16179;SDS011;8196;49.428;10.906;2024-02-26T12:09:41;3.22;;;2.60;;
16179;SDS011;8196;49.428;10.906;2024-02-26T12:12:10;3.10;;;2.58;;
16179;SDS011;8196;49.428;10.906;2024-02-26T12:14:40;3.33;;;2.50;;
16179;SDS011;8196;49.428;10.906;2024-02-26T12:17:19;3.97;;;2.90;;
16179;SDS011;8196;49.428;10.906;2024-02-26T12:19:48;3.60;;;2.40;;
16179;SDS011;8196;49.428;10.906;2024-02-26T12:22:16;3.50;;;2.53;;
16179;SDS011;8196;49.428;10.906;2024-02-26T12:24:43;2.90;;;2.43;;
16179;SDS011;8196;49.428;10.906;2024-02-26T12:27:10;4.70;;;2.33;;
16179;SDS011;8196;49.428;10.906;2024-02-26T12:29:37;3.05;;;2.30;;
16179;SDS011;8196;49.428;10.906;2024-02-26T12:32:05;2.58;;;2.22;;
16179;SDS011;8196;49.428;10.906;2024-02-26T12:34:33;3.80;;;2.47;;
16179;SDS011;8196;49.428;10.906;2024-02-26T12:37:01;2.50;;;1.93;;
16179;SDS011;8196;49.428;10.906;2024-02-26T12:39:29;4.13;;;2.42;;
16179;SDS011;8196;49.428;10.906;2024-02-26T12:41:58;3.15;;;2.30;;
16179;SDS011;8196;49.428;10.906;2024-02-26T12:44:26;2.80;;;2.40;;
16179;SDS011;8196;49.428;10.906;2024-02-26T12:47:03;3.78;;;2.60;;
16179;SDS011;8196;49.428;10.906;2024-02-26T12:49:31;2.97;;;2.30;;
16179;SDS011;8196;49.428;10.906;2024-02-26T12:51:58;2.60;;;2.30;;
16179;SDS011;8196;49.428;10.906;2024-02-26T12:54:29;3.03;;;2.13;;
16179;SDS011;8196;49.428;10.906;2024-02-26T12:56:59;2.90;;;2.20;;
16179;SDS011;8196;49.428;10.906;2024-02-26T12:59:28;4.22;;;2.40;;
16179;SDS011;8196;49.428;10.906;2024-02-26T13:01:56;3.83;;;2.33;;
16179;SDS011;8196;49.428;10.906;2024-02-26T13:04:23;2.30;;;1.90;;
16179;SDS011;8196;49.428;10.906;2024-02-26T13:06:51;4.15;;;2.35;;
16179;SDS011;8196;49.428;10.906;2024-02-26T13:09:19;3.30;;;2.40;;
16179;SDS011;8196;49.428;10.906;2024-02-26T13:11:55;2.50;;;1.90;;
16179;SDS011;8196;49.428;10.906;2024-02-26T13:14:23;2.90;;;1.88;;
16179;SDS011;8196;49.428;10.906;2024-02-26T13:16:57;2.10;;;1.90;;
16179;SDS011;8196;49.428;10.906;2024-02-26T13:19:27;2.25;;;1.80;;
16179;SDS011;8196;49.428;10.906;2024-02-26T13:21:55;2.70;;;1.80;;
16179;SDS011;8196;49.428;10.906;2024-02-26T13:24:22;2.38;;;1.63;;
16179;SDS011;8196;49.428;10.906;2024-02-26T13:26:54;2.85;;;2.10;;
16179;SDS011;8196;49.428;10.906;2024-02-26T13:29:22;2.13;;;1.63;;
16179;SDS011;8196;49.428;10.906;2024-02-26T13:31:53;2.00;;;1.80;;
16179;SDS011;8196;49.428;10.906;2024-02-26T13:34:24;2.58;;;1.67;;
16179;SDS011;8196;49.428;10.906;2024-02-26T13:36:53;2.22;;;1.92;;
16179;SDS011;8196;49.428;10.906;2024-02-26T13:39:22;2.75;;;1.95;;
16179;SDS011;8196;49.428;10.906;2024-02-26T13:41:50;2.90;;;2.10;;
16179;SDS011;8196;49.428;10.906;2024-02-26T13:44:19;2.17;;;1.67;;
16179;SDS011;8196;49.428;10.906;2024-02-26T13:46:47;2.00;;;1.48;;
16179;SDS011;8196;49.428;10.906;2024-02-26T13:49:15;1.60;;;1.40;;
16179;SDS011;8196;49.428;10.906;2024-02-26T13:51:43;2.05;;;1.52;;
16179;SDS011;8196;49.428;10.906;2024-02-26T13:54:10;1.73;;;1.48;;
16179;SDS011;8196;49.428;10.906;2024-02-26T13:56:38;1.83;;;1.48;;
16179;SDS011;8196;49.428;10.906;2024-02-26T13:59:06;2.22;;;1.40;;
16179;SDS011;8196;49.428;10.906;2024-02-26T14:01:33;1.35;;;1.20;;
16179;SDS011;8196;49.428;10.906;2024-02-26T14:04:00;1.75;;;1.48;;
16179;SDS011;8196;49.428;10.906;2024-02-26T14:06:29;1.67;;;1.17;;
16179;SDS011;8196;49.428;10.906;2024-02-26T14:08:57;1.58;;;1.30;;
16179;SDS011;8196;49.428;10.906;2024-02-26T14:11:26;2.38;;;1.50;;
16179;SDS011;8196;49.428;10.906;2024-02-26T14:13:55;3.78;;;1.48;;
16179;SDS011;8196;49.428;10.906;2024-02-26T14:16:22;1.25;;;1.05;;
16179;SDS011;8196;49.428;10.906;2024-02-26T14:18:55;2.30;;;1.15;;
16179;SDS011;8196;49.428;10.906;2024-02-26T14:21:24;1.20;;;1.10;;
16179;SDS011;8196;49.428;10.906;2024-02-26T14:23:53;1.55;;;1.30;;
16179;SDS011;8196;49.428;10.906;2024-02-26T14:26:22;2.65;;;1.30;;
16179;SDS011;8196;49.428;10.906;2024-02-26T14:28:49;2.08;;;1.30;;
16179;SDS011;8196;49.428;10.906;2024-02-26T14:31:17;1.57;;;1.07;;
16179;SDS011;8196;49.428;10.906;2024-02-26T14:33:44;4.00;;;1.40;;
16179;SDS011;8196;49.428;10.906;2024-02-26T14:36:12;1.50;;;1.20;;
16179;SDS011;8196;49.428;10.906;2024-02-26T14:38:39;1.90;;;1.20;;
16179;SDS011;8196;49.428;10.906;2024-02-26T14:41:06;1.87;;;1.30;;
16179;SDS011;8196;49.428;10.906;2024-02-26T14:43:34;2.35;;;1.50;;
16179;SDS011;8196;49.428;10.906;2024-02-26T14:46:02;1.63;;;1.38;;
16179;SDS011;8196;49.428;10.906;2024-02-26T14:48:30;1.65;;;1.55;;
16179;SDS011;8196;49.428;10.906;2024-02-26T14:50:58;1.73;;;1.40;;
16179;SDS011;8196;49.428;10.906;2024-02-26T14:53:26;1.70;;;1.50;;
16179;SDS011;8196;49.428;10.906;2024-02-26T14:55:53;2.47;;;1.60;;